sensor_id;sensor_type;location;lat;lon;timestamp;P1;durP1;ratioP1;P2;durP2;ratioP2
5813;SDS011;2933;52.302;8.134;2023-08-24T00:00:38;2.10;;;2.00;;
5813;SDS011;2933;52.302;8.134;2023-08-24T00:05:42;4.37;;;2.43;;
5813;SDS011;2933;52.302;8.134;2023-08-24T00:10:44;2.40;;;2.30;;
5813;SDS011;2933;52.302;8.134;2023-08-24T00:15:46;2.30;;;2.20;;
5813;SDS011;2933;52.302;8.134;2023-08-24T00:20:49;2.80;;;2.30;;
5813;SDS011;2933;52.302;8.134;2023-08-24T00:25:51;1.80;;;1.70;;
5813;SDS011;2933;52.302;8.134;2023-08-24T00:30:52;9.53;;;2.17;;
5813;SDS011;2933;52.302;8.134;2023-08-24T00:36:00;3.50;;;1.87;;
5813;SDS011;2933;52.302;8.134;2023-08-24T00:41:02;2.73;;;2.47;;
5813;SDS011;2933;52.302;8.134;2023-08-24T00:46:03;2.60;;;2.40;;
5813;SDS011;2933;52.302;8.134;2023-08-24T00:51:06;2.40;;;2.30;;
5813;SDS011;2933;52.302;8.134;2023-08-24T00:56:10;3.27;;;2.40;;
5813;SDS011;2933;52.302;8.134;2023-08-24T01:01:11;2.50;;;2.40;;
5813;SDS011;2933;52.302;8.134;2023-08-24T01:06:14;5.63;;;2.10;;
5813;SDS011;2933;52.302;8.134;2023-08-24T01:11:25;2.70;;;2.23;;
5813;SDS011;2933;52.302;8.134;2023-08-24T01:16:34;9.27;;;2.77;;
5813;SDS011;2933;52.302;8.134;2023-08-24T01:21:41;7.30;;;2.57;;
5813;SDS011;2933;52.302;8.134;2023-08-24T01:26:45;3.30;;;2.50;;
5813;SDS011;2933;52.302;8.134;2023-08-24T01:31:49;2.40;;;2.20;;
5813;SDS011;2933;52.302;8.134;2023-08-24T01:36:50;2.63;;;2.43;;
5813;SDS011;2933;52.302;8.134;2023-08-24T01:41:54;2.40;;;2.30;;
5813;SDS011;2933;52.302;8.134;2023-08-24T01:47:01;3.27;;;2.97;;
5813;SDS011;2933;52.302;8.134;2023-08-24T01:52:04;2.70;;;2.50;;
5813;SDS011;2933;52.302;8.134;2023-08-24T01:57:08;4.83;;;3.23;;
5813;SDS011;2933;52.302;8.134;2023-08-24T02:02:09;3.97;;;3.27;;
5813;SDS011;2933;52.302;8.134;2023-08-24T02:07:11;5.10;;;4.33;;
5813;SDS011;2933;52.302;8.134;2023-08-24T02:12:14;4.30;;;4.00;;
5813;SDS011;2933;52.302;8.134;2023-08-24T02:17:15;3.77;;;3.43;;
5813;SDS011;2933;52.302;8.134;2023-08-24T02:22:17;4.53;;;4.10;;
5813;SDS011;2933;52.302;8.134;2023-08-24T02:27:20;6.20;;;4.60;;
5813;SDS011;2933;52.302;8.134;2023-08-24T02:32:21;8.33;;;4.33;;
5813;SDS011;2933;52.302;8.134;2023-08-24T02:37:23;4.60;;;4.30;;
5813;SDS011;2933;52.302;8.134;2023-08-24T02:42:26;4.03;;;3.73;;
5813;SDS011;2933;52.302;8.134;2023-08-24T02:47:27;6.00;;;4.60;;
5813;SDS011;2933;52.302;8.134;2023-08-24T02:52:29;7.30;;;5.03;;
5813;SDS011;2933;52.302;8.134;2023-08-24T02:57:32;5.33;;;4.83;;
5813;SDS011;2933;52.302;8.134;2023-08-24T03:02:35;4.53;;;4.23;;
5813;SDS011;2933;52.302;8.134;2023-08-24T03:07:37;4.77;;;4.37;;
5813;SDS011;2933;52.302;8.134;2023-08-24T03:12:40;5.00;;;4.50;;
5813;SDS011;2933;52.302;8.134;2023-08-24T03:17:41;5.23;;;4.70;;
5813;SDS011;2933;52.302;8.134;2023-08-24T03:22:43;8.53;;;5.00;;
5813;SDS011;2933;52.302;8.134;2023-08-24T03:27:46;6.00;;;5.10;;
5813;SDS011;2933;52.302;8.134;2023-08-24T03:32:48;10.83;;;6.13;;
5813;SDS011;2933;52.302;8.134;2023-08-24T03:37:49;6.40;;;5.53;;
5813;SDS011;2933;52.302;8.134;2023-08-24T03:42:53;8.53;;;6.53;;
5813;SDS011;2933;52.302;8.134;2023-08-24T03:47:54;6.80;;;6.10;;
5813;SDS011;2933;52.302;8.134;2023-08-24T03:52:56;12.43;;;7.00;;
5813;SDS011;2933;52.302;8.134;2023-08-24T03:57:59;8.33;;;7.43;;
5813;SDS011;2933;52.302;8.134;2023-08-24T04:03:00;14.40;;;8.47;;
5813;SDS011;2933;52.302;8.134;2023-08-24T04:08:02;10.90;;;8.10;;
5813;SDS011;2933;52.302;8.134;2023-08-24T04:13:06;12.30;;;8.60;;
5813;SDS011;2933;52.302;8.134;2023-08-24T04:18:07;10.10;;;8.33;;
5813;SDS011;2933;52.302;8.134;2023-08-24T04:23:09;14.33;;;8.77;;
5813;SDS011;2933;52.302;8.134;2023-08-24T04:28:11;20.10;;;9.57;;
5813;SDS011;2933;52.302;8.134;2023-08-24T04:33:13;15.43;;;10.80;;
5813;SDS011;2933;52.302;8.134;2023-08-24T04:38:15;19.60;;;11.80;;
5813;SDS011;2933;52.302;8.134;2023-08-24T04:43:18;17.90;;;12.47;;
5813;SDS011;2933;52.302;8.134;2023-08-24T04:48:21;19.63;;;11.83;;
5813;SDS011;2933;52.302;8.134;2023-08-24T04:53:23;16.70;;;11.23;;
5813;SDS011;2933;52.302;8.134;2023-08-24T04:58:26;16.37;;;11.30;;
5813;SDS011;2933;52.302;8.134;2023-08-24T05:03:27;14.93;;;10.20;;
5813;SDS011;2933;52.302;8.134;2023-08-24T05:08:29;13.63;;;9.27;;
5813;SDS011;2933;52.302;8.134;2023-08-24T05:13:32;12.40;;;8.50;;
5813;SDS011;2933;52.302;8.134;2023-08-24T05:18:33;11.23;;;8.30;;
5813;SDS011;2933;52.302;8.134;2023-08-24T05:23:36;18.30;;;10.80;;
5813;SDS011;2933;52.302;8.134;2023-08-24T05:28:39;13.90;;;9.23;;
5813;SDS011;2933;52.302;8.134;2023-08-24T05:33:40;11.47;;;8.67;;
5813;SDS011;2933;52.302;8.134;2023-08-24T05:38:42;17.00;;;9.90;;
5813;SDS011;2933;52.302;8.134;2023-08-24T05:43:48;14.23;;;9.20;;
5813;SDS011;2933;52.302;8.134;2023-08-24T05:48:51;13.20;;;8.03;;
5813;SDS011;2933;52.302;8.134;2023-08-24T05:53:52;11.63;;;9.40;;
5813;SDS011;2933;52.302;8.134;2023-08-24T05:58:57;11.77;;;9.30;;
5813;SDS011;2933;52.302;8.134;2023-08-24T06:03:58;12.10;;;9.10;;
5813;SDS011;2933;52.302;8.134;2023-08-24T06:09:00;12.53;;;8.40;;
5813;SDS011;2933;52.302;8.134;2023-08-24T06:14:05;11.90;;;8.37;;
5813;SDS011;2933;52.302;8.134;2023-08-24T06:19:07;13.73;;;8.40;;
5813;SDS011;2933;52.302;8.134;2023-08-24T06:24:08;12.77;;;8.37;;
5813;SDS011;2933;52.302;8.134;2023-08-24T06:29:11;12.40;;;8.00;;
5813;SDS011;2933;52.302;8.134;2023-08-24T06:34:13;13.87;;;8.70;;
5813;SDS011;2933;52.302;8.134;2023-08-24T06:39:14;13.47;;;8.60;;
5813;SDS011;2933;52.302;8.134;2023-08-24T06:44:17;11.40;;;8.07;;
5813;SDS011;2933;52.302;8.134;2023-08-24T06:49:19;12.70;;;8.43;;
5813;SDS011;2933;52.302;8.134;2023-08-24T06:54:20;10.27;;;8.10;;
5813;SDS011;2933;52.302;8.134;2023-08-24T06:59:24;11.57;;;8.70;;
5813;SDS011;2933;52.302;8.134;2023-08-24T07:04:25;9.77;;;8.77;;
5813;SDS011;2933;52.302;8.134;2023-08-24T07:09:27;19.27;;;8.40;;
5813;SDS011;2933;52.302;8.134;2023-08-24T07:14:30;13.57;;;8.80;;
5813;SDS011;2933;52.302;8.134;2023-08-24T07:19:32;15.60;;;7.80;;
5813;SDS011;2933;52.302;8.134;2023-08-24T07:24:33;12.10;;;8.50;;
5813;SDS011;2933;52.302;8.134;2023-08-24T07:29:37;9.10;;;7.27;;
5813;SDS011;2933;52.302;8.134;2023-08-24T07:34:39;10.23;;;7.93;;
5813;SDS011;2933;52.302;8.134;2023-08-24T07:39:40;8.90;;;7.10;;
5813;SDS011;2933;52.302;8.134;2023-08-24T07:44:43;10.33;;;6.33;;
5813;SDS011;2933;52.302;8.134;2023-08-24T07:49:45;14.47;;;7.30;;
5813;SDS011;2933;52.302;8.134;2023-08-24T07:54:47;7.23;;;6.53;;
5813;SDS011;2933;52.302;8.134;2023-08-24T07:59:50;8.67;;;6.93;;
5813;SDS011;2933;52.302;8.134;2023-08-24T08:04:51;9.00;;;6.50;;
5813;SDS011;2933;52.302;8.134;2023-08-24T08:09:57;11.73;;;7.30;;
5813;SDS011;2933;52.302;8.134;2023-08-24T08:14:59;6.97;;;6.20;;
5813;SDS011;2933;52.302;8.134;2023-08-24T08:20:01;6.73;;;6.00;;
5813;SDS011;2933;52.302;8.134;2023-08-24T08:25:03;6.80;;;5.20;;
5813;SDS011;2933;52.302;8.134;2023-08-24T08:30:08;6.57;;;5.90;;
5813;SDS011;2933;52.302;8.134;2023-08-24T08:35:10;6.30;;;5.70;;
5813;SDS011;2933;52.302;8.134;2023-08-24T08:40:12;7.20;;;6.50;;
5813;SDS011;2933;52.302;8.134;2023-08-24T08:45:15;6.80;;;4.80;;
5813;SDS011;2933;52.302;8.134;2023-08-24T08:50:19;8.93;;;4.63;;
5813;SDS011;2933;52.302;8.134;2023-08-24T08:55:22;6.20;;;3.70;;
5813;SDS011;2933;52.302;8.134;2023-08-24T09:00:25;5.60;;;5.10;;
5813;SDS011;2933;52.302;8.134;2023-08-24T09:05:27;5.63;;;3.53;;
5813;SDS011;2933;52.302;8.134;2023-08-24T09:10:29;6.20;;;4.63;;
5813;SDS011;2933;52.302;8.134;2023-08-24T09:15:34;6.07;;;5.57;;
5813;SDS011;2933;52.302;8.134;2023-08-24T09:20:36;5.53;;;4.13;;
5813;SDS011;2933;52.302;8.134;2023-08-24T09:25:44;4.70;;;3.93;;
5813;SDS011;2933;52.302;8.134;2023-08-24T09:30:49;4.27;;;3.87;;
5813;SDS011;2933;52.302;8.134;2023-08-24T09:35:54;4.70;;;4.40;;
5813;SDS011;2933;52.302;8.134;2023-08-24T09:41:01;6.70;;;3.90;;
5813;SDS011;2933;52.302;8.134;2023-08-24T09:46:04;4.20;;;3.47;;
5813;SDS011;2933;52.302;8.134;2023-08-24T09:51:08;5.07;;;2.77;;
5813;SDS011;2933;52.302;8.134;2023-08-24T09:56:10;5.33;;;3.90;;
5813;SDS011;2933;52.302;8.134;2023-08-24T10:01:17;4.73;;;3.30;;
5813;SDS011;2933;52.302;8.134;2023-08-24T10:06:20;8.47;;;3.07;;
5813;SDS011;2933;52.302;8.134;2023-08-24T10:11:26;9.00;;;3.10;;
5813;SDS011;2933;52.302;8.134;2023-08-24T10:16:31;4.23;;;2.67;;
5813;SDS011;2933;52.302;8.134;2023-08-24T10:21:34;4.20;;;3.83;;
5813;SDS011;2933;52.302;8.134;2023-08-24T10:26:39;2.80;;;2.60;;
5813;SDS011;2933;52.302;8.134;2023-08-24T10:31:43;2.70;;;2.50;;
5813;SDS011;2933;52.302;8.134;2023-08-24T10:36:47;3.30;;;3.10;;
5813;SDS011;2933;52.302;8.134;2023-08-24T10:41:49;10.70;;;2.87;;
5813;SDS011;2933;52.302;8.134;2023-08-24T10:52:18;2.10;;;1.90;;
5813;SDS011;2933;52.302;8.134;2023-08-24T10:57:23;3.63;;;2.47;;
5813;SDS011;2933;52.302;8.134;2023-08-24T11:02:29;4.37;;;2.17;;
5813;SDS011;2933;52.302;8.134;2023-08-24T11:07:30;2.47;;;2.33;;
5813;SDS011;2933;52.302;8.134;2023-08-24T11:12:45;4.67;;;2.63;;
5813;SDS011;2933;52.302;8.134;2023-08-24T11:18:13;3.47;;;3.20;;
5813;SDS011;2933;52.302;8.134;2023-08-24T11:23:24;2.80;;;2.70;;
5813;SDS011;2933;52.302;8.134;2023-08-24T11:28:26;3.00;;;2.70;;
5813;SDS011;2933;52.302;8.134;2023-08-24T11:33:31;7.57;;;3.13;;
5813;SDS011;2933;52.302;8.134;2023-08-24T11:38:36;3.10;;;2.90;;
5813;SDS011;2933;52.302;8.134;2023-08-24T11:43:39;3.30;;;3.00;;
5813;SDS011;2933;52.302;8.134;2023-08-24T11:48:42;4.47;;;3.13;;
5813;SDS011;2933;52.302;8.134;2023-08-24T11:53:45;4.47;;;2.90;;
5813;SDS011;2933;52.302;8.134;2023-08-24T11:58:48;9.67;;;2.97;;
5813;SDS011;2933;52.302;8.134;2023-08-24T12:03:52;3.33;;;2.70;;
5813;SDS011;2933;52.302;8.134;2023-08-24T12:08:54;7.20;;;3.10;;
5813;SDS011;2933;52.302;8.134;2023-08-24T12:13:56;4.13;;;3.83;;
5813;SDS011;2933;52.302;8.134;2023-08-24T12:18:59;4.13;;;3.73;;
5813;SDS011;2933;52.302;8.134;2023-08-24T12:24:03;4.33;;;3.37;;
5813;SDS011;2933;52.302;8.134;2023-08-24T12:29:07;5.10;;;2.90;;
5813;SDS011;2933;52.302;8.134;2023-08-24T12:34:10;2.97;;;2.60;;
5813;SDS011;2933;52.302;8.134;2023-08-24T12:39:16;4.57;;;3.10;;
5813;SDS011;2933;52.302;8.134;2023-08-24T12:44:17;6.23;;;3.60;;
5813;SDS011;2933;52.302;8.134;2023-08-24T12:49:31;10.20;;;3.13;;
5813;SDS011;2933;52.302;8.134;2023-08-24T12:54:33;3.30;;;3.10;;
5813;SDS011;2933;52.302;8.134;2023-08-24T12:59:34;7.43;;;2.97;;
5813;SDS011;2933;52.302;8.134;2023-08-24T13:04:37;6.30;;;3.00;;
5813;SDS011;2933;52.302;8.134;2023-08-24T13:09:39;3.90;;;2.60;;
5813;SDS011;2933;52.302;8.134;2023-08-24T13:14:40;3.00;;;2.80;;
5813;SDS011;2933;52.302;8.134;2023-08-24T13:19:46;3.30;;;2.77;;
5813;SDS011;2933;52.302;8.134;2023-08-24T13:24:49;3.60;;;3.30;;
5813;SDS011;2933;52.302;8.134;2023-08-24T13:29:50;3.30;;;3.00;;
5813;SDS011;2933;52.302;8.134;2023-08-24T13:34:53;3.10;;;2.90;;
5813;SDS011;2933;52.302;8.134;2023-08-24T13:39:57;5.27;;;3.03;;
5813;SDS011;2933;52.302;8.134;2023-08-24T13:44:59;5.33;;;3.10;;
5813;SDS011;2933;52.302;8.134;2023-08-24T13:50:02;2.60;;;2.50;;
5813;SDS011;2933;52.302;8.134;2023-08-24T13:55:04;5.33;;;3.30;;
5813;SDS011;2933;52.302;8.134;2023-08-24T14:00:07;6.73;;;3.50;;
5813;SDS011;2933;52.302;8.134;2023-08-24T14:05:10;6.13;;;3.20;;
5813;SDS011;2933;52.302;8.134;2023-08-24T14:10:13;2.70;;;2.50;;
5813;SDS011;2933;52.302;8.134;2023-08-24T14:15:14;3.67;;;2.07;;
5813;SDS011;2933;52.302;8.134;2023-08-24T14:20:17;2.40;;;1.90;;
5813;SDS011;2933;52.302;8.134;2023-08-24T14:25:19;2.17;;;2.07;;
5813;SDS011;2933;52.302;8.134;2023-08-24T14:30:21;2.87;;;2.63;;
5813;SDS011;2933;52.302;8.134;2023-08-24T14:35:24;2.50;;;2.20;;
5813;SDS011;2933;52.302;8.134;2023-08-24T14:40:25;3.93;;;3.63;;
5813;SDS011;2933;52.302;8.134;2023-08-24T14:45:27;2.93;;;2.73;;
5813;SDS011;2933;52.302;8.134;2023-08-24T14:50:30;5.53;;;2.03;;
5813;SDS011;2933;52.302;8.134;2023-08-24T14:55:31;3.70;;;2.43;;
5813;SDS011;2933;52.302;8.134;2023-08-24T15:00:33;2.50;;;2.10;;
5813;SDS011;2933;52.302;8.134;2023-08-24T15:05:42;2.37;;;2.27;;
5813;SDS011;2933;52.302;8.134;2023-08-24T15:10:45;2.60;;;2.30;;
5813;SDS011;2933;52.302;8.134;2023-08-24T15:15:46;3.00;;;2.80;;
5813;SDS011;2933;52.302;8.134;2023-08-24T15:20:49;2.60;;;2.40;;
5813;SDS011;2933;52.302;8.134;2023-08-24T15:25:52;3.53;;;2.43;;
5813;SDS011;2933;52.302;8.134;2023-08-24T15:30:55;2.67;;;2.47;;
5813;SDS011;2933;52.302;8.134;2023-08-24T15:35:57;4.40;;;2.67;;
5813;SDS011;2933;52.302;8.134;2023-08-24T15:40:59;2.80;;;2.70;;
5813;SDS011;2933;52.302;8.134;2023-08-24T15:46:00;4.17;;;2.33;;
5813;SDS011;2933;52.302;8.134;2023-08-24T15:51:03;2.90;;;2.70;;
5813;SDS011;2933;52.302;8.134;2023-08-24T15:56:06;2.77;;;2.57;;
5813;SDS011;2933;52.302;8.134;2023-08-24T16:01:07;2.40;;;2.30;;
5813;SDS011;2933;52.302;8.134;2023-08-24T16:06:10;3.67;;;2.37;;
5813;SDS011;2933;52.302;8.134;2023-08-24T16:11:12;3.13;;;2.57;;
5813;SDS011;2933;52.302;8.134;2023-08-24T16:16:13;2.83;;;2.30;;
5813;SDS011;2933;52.302;8.134;2023-08-24T16:21:16;2.93;;;2.40;;
5813;SDS011;2933;52.302;8.134;2023-08-24T16:26:18;2.50;;;2.30;;
5813;SDS011;2933;52.302;8.134;2023-08-24T16:31:19;2.20;;;2.00;;
5813;SDS011;2933;52.302;8.134;2023-08-24T16:36:22;3.60;;;2.20;;
5813;SDS011;2933;52.302;8.134;2023-08-24T16:41:24;2.17;;;1.97;;
5813;SDS011;2933;52.302;8.134;2023-08-24T16:46:25;7.30;;;2.57;;
5813;SDS011;2933;52.302;8.134;2023-08-24T16:51:28;10.20;;;2.27;;
5813;SDS011;2933;52.302;8.134;2023-08-24T16:56:30;3.47;;;2.27;;
5813;SDS011;2933;52.302;8.134;2023-08-24T17:01:31;2.70;;;2.23;;
5813;SDS011;2933;52.302;8.134;2023-08-24T17:06:36;2.53;;;2.33;;
5813;SDS011;2933;52.302;8.134;2023-08-24T17:11:38;5.23;;;2.67;;
5813;SDS011;2933;52.302;8.134;2023-08-24T17:16:39;5.90;;;2.80;;
5813;SDS011;2933;52.302;8.134;2023-08-24T17:21:42;4.57;;;2.67;;
5813;SDS011;2933;52.302;8.134;2023-08-24T17:26:44;4.80;;;2.70;;
5813;SDS011;2933;52.302;8.134;2023-08-24T17:31:45;2.83;;;2.50;;
5813;SDS011;2933;52.302;8.134;2023-08-24T17:36:48;2.33;;;2.20;;
5813;SDS011;2933;52.302;8.134;2023-08-24T17:41:50;2.70;;;2.40;;
5813;SDS011;2933;52.302;8.134;2023-08-24T17:46:51;2.63;;;2.53;;
5813;SDS011;2933;52.302;8.134;2023-08-24T17:51:54;2.93;;;2.63;;
5813;SDS011;2933;52.302;8.134;2023-08-24T17:56:56;4.67;;;2.43;;
5813;SDS011;2933;52.302;8.134;2023-08-24T18:01:57;5.20;;;2.63;;
5813;SDS011;2933;52.302;8.134;2023-08-24T18:07:00;3.10;;;2.83;;
5813;SDS011;2933;52.302;8.134;2023-08-24T18:12:03;3.13;;;2.83;;
5813;SDS011;2933;52.302;8.134;2023-08-24T18:17:05;3.33;;;2.90;;
5813;SDS011;2933;52.302;8.134;2023-08-24T18:22:08;6.07;;;4.37;;
5813;SDS011;2933;52.302;8.134;2023-08-24T18:27:09;5.77;;;3.40;;
5813;SDS011;2933;52.302;8.134;2023-08-24T18:32:11;4.93;;;3.30;;
5813;SDS011;2933;52.302;8.134;2023-08-24T18:37:14;2.60;;;2.40;;
5813;SDS011;2933;52.302;8.134;2023-08-24T18:42:15;6.80;;;3.00;;
5813;SDS011;2933;52.302;8.134;2023-08-24T18:47:17;3.30;;;2.97;;
5813;SDS011;2933;52.302;8.134;2023-08-24T18:52:20;3.20;;;2.90;;
5813;SDS011;2933;52.302;8.134;2023-08-24T18:57:22;3.87;;;2.90;;
5813;SDS011;2933;52.302;8.134;2023-08-24T19:02:24;2.90;;;2.70;;
5813;SDS011;2933;52.302;8.134;2023-08-24T19:07:26;7.13;;;3.33;;
5813;SDS011;2933;52.302;8.134;2023-08-24T19:12:28;3.13;;;2.80;;
5813;SDS011;2933;52.302;8.134;2023-08-24T19:17:29;5.00;;;3.27;;
5813;SDS011;2933;52.302;8.134;2023-08-24T19:22:32;8.23;;;2.67;;
5813;SDS011;2933;52.302;8.134;2023-08-24T19:27:34;4.00;;;2.87;;
5813;SDS011;2933;52.302;8.134;2023-08-24T19:32:36;4.70;;;2.50;;
5813;SDS011;2933;52.302;8.134;2023-08-24T19:37:38;5.43;;;3.37;;
5813;SDS011;2933;52.302;8.134;2023-08-24T19:42:40;5.43;;;2.93;;
5813;SDS011;2933;52.302;8.134;2023-08-24T19:47:41;2.90;;;2.67;;
5813;SDS011;2933;52.302;8.134;2023-08-24T19:52:44;5.00;;;3.13;;
5813;SDS011;2933;52.302;8.134;2023-08-24T19:57:47;3.77;;;3.00;;
5813;SDS011;2933;52.302;8.134;2023-08-24T20:02:49;6.30;;;3.03;;
5813;SDS011;2933;52.302;8.134;2023-08-24T20:07:55;5.63;;;2.80;;
5813;SDS011;2933;52.302;8.134;2023-08-24T20:12:56;3.80;;;2.93;;
5813;SDS011;2933;52.302;8.134;2023-08-24T20:17:58;4.37;;;2.90;;
5813;SDS011;2933;52.302;8.134;2023-08-24T20:23:01;3.20;;;2.40;;
5813;SDS011;2933;52.302;8.134;2023-08-24T20:28:02;2.53;;;2.33;;
5813;SDS011;2933;52.302;8.134;2023-08-24T20:33:05;7.53;;;2.50;;
5813;SDS011;2933;52.302;8.134;2023-08-24T20:38:07;3.17;;;2.83;;
5813;SDS011;2933;52.302;8.134;2023-08-24T20:43:10;7.40;;;2.77;;
5813;SDS011;2933;52.302;8.134;2023-08-24T20:48:12;4.73;;;3.03;;
5813;SDS011;2933;52.302;8.134;2023-08-24T20:53:15;3.80;;;2.40;;
5813;SDS011;2933;52.302;8.134;2023-08-24T20:58:17;5.73;;;2.53;;
5813;SDS011;2933;52.302;8.134;2023-08-24T21:03:19;4.87;;;2.37;;
5813;SDS011;2933;52.302;8.134;2023-08-24T21:08:22;7.37;;;3.20;;
5813;SDS011;2933;52.302;8.134;2023-08-24T21:13:23;7.60;;;2.90;;
5813;SDS011;2933;52.302;8.134;2023-08-24T21:18:25;4.03;;;2.40;;
5813;SDS011;2933;52.302;8.134;2023-08-24T21:23:28;4.97;;;2.73;;
5813;SDS011;2933;52.302;8.134;2023-08-24T21:28:29;5.57;;;3.23;;
5813;SDS011;2933;52.302;8.134;2023-08-24T21:33:31;7.47;;;3.27;;
5813;SDS011;2933;52.302;8.134;2023-08-24T21:38:34;3.30;;;3.00;;
5813;SDS011;2933;52.302;8.134;2023-08-24T21:43:36;9.87;;;3.17;;
5813;SDS011;2933;52.302;8.134;2023-08-24T21:48:38;6.80;;;3.23;;
5813;SDS011;2933;52.302;8.134;2023-08-24T21:53:40;8.83;;;3.27;;
5813;SDS011;2933;52.302;8.134;2023-08-24T21:58:42;2.93;;;2.60;;
5813;SDS011;2933;52.302;8.134;2023-08-24T22:03:43;7.00;;;2.80;;
5813;SDS011;2933;52.302;8.134;2023-08-24T22:08:46;2.93;;;2.73;;
5813;SDS011;2933;52.302;8.134;2023-08-24T22:13:48;3.07;;;2.40;;
5813;SDS011;2933;52.302;8.134;2023-08-24T22:18:49;6.77;;;2.87;;
5813;SDS011;2933;52.302;8.134;2023-08-24T22:23:54;4.33;;;2.80;;
5813;SDS011;2933;52.302;8.134;2023-08-24T22:28:55;4.43;;;2.90;;
5813;SDS011;2933;52.302;8.134;2023-08-24T22:33:58;4.10;;;2.80;;
5813;SDS011;2933;52.302;8.134;2023-08-24T22:39:00;6.10;;;2.80;;
5813;SDS011;2933;52.302;8.134;2023-08-24T22:44:03;5.10;;;2.60;;
5813;SDS011;2933;52.302;8.134;2023-08-24T22:49:04;3.83;;;2.73;;
5813;SDS011;2933;52.302;8.134;2023-08-24T22:54:07;3.10;;;2.83;;
5813;SDS011;2933;52.302;8.134;2023-08-24T22:59:09;4.60;;;3.50;;
5813;SDS011;2933;52.302;8.134;2023-08-24T23:04:11;4.97;;;3.10;;
5813;SDS011;2933;52.302;8.134;2023-08-24T23:09:14;4.17;;;3.07;;
5813;SDS011;2933;52.302;8.134;2023-08-24T23:14:18;4.13;;;2.53;;
5813;SDS011;2933;52.302;8.134;2023-08-24T23:19:19;3.87;;;2.60;;
5813;SDS011;2933;52.302;8.134;2023-08-24T23:24:23;2.47;;;2.37;;
5813;SDS011;2933;52.302;8.134;2023-08-24T23:29:24;5.63;;;3.10;;
5813;SDS011;2933;52.302;8.134;2023-08-24T23:34:26;2.93;;;2.70;;
5813;SDS011;2933;52.302;8.134;2023-08-24T23:39:28;4.20;;;2.80;;
5813;SDS011;2933;52.302;8.134;2023-08-24T23:44:30;6.20;;;2.80;;
5813;SDS011;2933;52.302;8.134;2023-08-24T23:49:32;4.97;;;2.93;;
5813;SDS011;2933;52.302;8.134;2023-08-24T23:54:36;5.20;;;3.90;;
5813;SDS011;2933;52.302;8.134;2023-08-24T23:59:37;3.43;;;3.10;;
